createdAt,value
2022-10-28T00:00:56.344Z,68.97
2022-10-28T00:03:24.337Z,69.00
2022-10-28T00:05:54.447Z,69.95
2022-10-28T00:08:22.352Z,71.09
2022-10-28T00:10:52.200Z,71.66
2022-10-28T00:13:20.064Z,72.14
2022-10-28T00:15:47.948Z,72.22
2022-10-28T00:18:15.868Z,71.14
2022-10-28T00:20:45.155Z,71.33
2022-10-28T00:23:13.027Z,71.40
2022-10-28T00:25:40.932Z,71.68
2022-10-28T00:28:10.199Z,71.65
2022-10-28T00:30:40.982Z,71.73
2022-10-28T00:33:08.855Z,71.83
2022-10-28T00:35:36.771Z,71.94
2022-10-28T00:38:04.776Z,72.07
2022-10-28T00:40:35.858Z,72.00
2022-10-28T00:43:03.734Z,72.05
2022-10-28T00:45:32.998Z,72.27
2022-10-28T00:48:03.472Z,73.05
2022-10-28T00:50:43.467Z,72.50
2022-10-28T00:53:15.622Z,72.22
2022-10-28T00:55:45.410Z,71.46
2022-10-28T00:58:13.704Z,71.54
2022-10-28T01:00:43.086Z,72.25
2022-10-28T01:03:11.009Z,73.08
2022-10-28T01:05:43.240Z,73.19
2022-10-28T01:08:11.912Z,72.90
2022-10-28T01:11:02.824Z,72.44
2022-10-28T01:13:40.345Z,72.52
2022-10-28T01:16:20.708Z,72.70
2022-10-28T01:18:58.395Z,72.20
2022-10-28T01:22:13.828Z,72.95
2022-10-28T01:25:20.545Z,73.56
2022-10-28T01:28:08.134Z,72.10
2022-10-28T01:30:53.641Z,74.04
2022-10-28T01:33:27.868Z,74.58
2022-10-28T01:36:00.422Z,74.29
2022-10-28T01:38:36.060Z,74.45
2022-10-28T01:41:09.066Z,74.39
2022-10-28T01:43:46.360Z,74.30
2022-10-28T01:46:20.400Z,75.67
2022-10-28T01:48:52.893Z,74.18
2022-10-28T01:51:25.286Z,74.76
2022-10-28T01:53:56.203Z,73.88
2022-10-28T01:56:28.242Z,74.21
2022-10-28T01:59:00.229Z,75.07
2022-10-28T02:01:31.383Z,74.83
2022-10-28T02:03:59.619Z,74.81
2022-10-28T02:06:30.668Z,75.34
2022-10-28T02:09:25.091Z,75.05
2022-10-28T02:12:21.294Z,74.70
2022-10-28T02:15:10.902Z,74.40
2022-10-28T02:17:52.104Z,74.84
2022-10-28T02:20:28.468Z,75.00
2022-10-28T02:23:06.581Z,74.09
2022-10-28T02:25:43.262Z,73.80
2022-10-28T02:28:15.361Z,74.84
2022-10-28T02:30:48.048Z,75.05
2022-10-28T02:33:21.565Z,74.51
2022-10-28T02:35:53.700Z,74.91
2022-10-28T02:38:26.221Z,75.09
2022-10-28T02:41:00.226Z,75.62
2022-10-28T02:43:31.781Z,75.81
2022-10-28T02:46:02.739Z,75.76
2022-10-28T02:48:34.803Z,75.42
2022-10-28T02:51:08.842Z,75.23
2022-10-28T02:53:46.371Z,76.34
2022-10-28T02:56:16.879Z,75.54
2022-10-28T02:58:46.600Z,74.04
2022-10-28T03:01:14.796Z,74.50
2022-10-28T03:03:44.908Z,75.03
2022-10-28T03:06:12.811Z,74.82
2022-10-28T03:08:40.720Z,73.53
2022-10-28T03:11:08.617Z,72.81
2022-10-28T03:13:36.508Z,73.18
2022-10-28T03:16:04.565Z,73.57
2022-10-28T03:18:32.421Z,73.08
2022-10-28T03:21:01.688Z,73.03
2022-10-28T03:23:29.602Z,72.67
2022-10-28T03:25:57.461Z,73.69
2022-10-28T03:28:25.396Z,74.36
2022-10-28T03:30:53.279Z,73.48
2022-10-28T03:33:21.197Z,72.52
2022-10-28T03:35:49.088Z,73.61
2022-10-28T03:38:18.476Z,74.12
2022-10-28T03:40:48.865Z,73.23
2022-10-28T03:43:16.955Z,72.39
2022-10-28T03:45:45.303Z,72.83
2022-10-28T03:48:13.182Z,74.03
2022-10-28T03:50:41.065Z,73.50
2022-10-28T03:53:08.966Z,72.65
2022-10-28T03:55:41.295Z,72.87
2022-10-28T03:58:09.164Z,73.19
2022-10-28T04:00:37.079Z,73.02
2022-10-28T04:03:05.064Z,72.63
2022-10-28T04:05:32.957Z,72.53
2022-10-28T04:08:00.787Z,74.90
2022-10-28T04:10:28.639Z,74.54
2022-10-28T04:13:02.267Z,75.39
2022-10-28T04:15:30.247Z,74.83
2022-10-28T04:17:58.217Z,74.94
2022-10-28T04:20:27.273Z,75.00
2022-10-28T04:22:57.218Z,75.77
2022-10-28T04:25:27.028Z,75.18
2022-10-28T04:27:55.665Z,76.14
2022-10-28T04:30:25.565Z,76.89
2022-10-28T04:32:53.591Z,77.31
2022-10-28T04:35:21.543Z,76.61
2022-10-28T04:37:49.396Z,76.19
2022-10-28T04:40:17.450Z,75.98
2022-10-28T04:42:45.423Z,75.71
2022-10-28T04:45:13.399Z,75.46
2022-10-28T04:47:42.616Z,76.75
2022-10-28T04:50:10.820Z,77.55
2022-10-28T04:52:38.884Z,77.24
2022-10-28T04:55:07.562Z,77.89
2022-10-28T04:57:35.480Z,76.52
2022-10-28T05:00:03.568Z,76.10
2022-10-28T05:02:31.991Z,77.14
2022-10-28T05:05:03.616Z,77.27
2022-10-28T05:07:31.703Z,77.64
2022-10-28T05:09:59.606Z,76.40
2022-10-28T05:12:27.497Z,76.19
2022-10-28T05:14:55.374Z,75.88
2022-10-28T05:17:23.260Z,75.58
2022-10-28T05:19:51.224Z,75.65
2022-10-28T05:22:20.483Z,74.57
2022-10-28T05:24:48.394Z,75.33
2022-10-28T05:27:16.997Z,74.84
2022-10-28T05:29:44.864Z,73.65
2022-10-28T05:32:12.811Z,74.09
2022-10-28T05:34:40.689Z,74.09
2022-10-28T05:37:08.614Z,74.59
2022-10-28T05:39:37.900Z,73.85
2022-10-28T05:42:05.958Z,74.02
2022-10-28T05:44:33.837Z,73.52
2022-10-28T05:47:01.706Z,74.48
2022-10-28T05:49:29.621Z,73.62
2022-10-28T05:51:57.501Z,72.72
2022-10-28T05:54:25.483Z,72.70
2022-10-28T05:56:54.908Z,73.19
2022-10-28T05:59:22.810Z,72.78
2022-10-28T06:01:50.965Z,72.02
2022-10-28T06:04:18.882Z,71.55
2022-10-28T06:06:46.848Z,71.06
2022-10-28T06:09:14.744Z,71.73
2022-10-28T06:11:41.129Z,71.12
2022-10-28T06:14:10.385Z,71.30
2022-10-28T06:16:38.327Z,71.72
2022-10-28T06:19:06.201Z,71.90
2022-10-28T06:21:34.126Z,71.52
2022-10-28T06:24:02.093Z,71.10
2022-10-28T06:26:29.931Z,71.39
2022-10-28T06:28:57.835Z,71.82
2022-10-28T06:31:27.104Z,72.07
2022-10-28T06:33:56.244Z,71.44
2022-10-28T06:36:24.193Z,70.67
2022-10-28T06:38:52.867Z,70.15
2022-10-28T06:41:20.728Z,69.85
2022-10-28T06:43:48.622Z,69.84
2022-10-28T06:46:16.616Z,69.01
2022-10-28T06:48:47.410Z,69.27
2022-10-28T06:51:16.975Z,68.93
2022-10-28T06:53:44.926Z,69.14
2022-10-28T06:56:12.774Z,68.82
2022-10-28T06:58:40.789Z,68.87
2022-10-28T07:01:09.115Z,68.22
2022-10-28T07:03:37.103Z,68.18
2022-10-28T07:06:07.212Z,67.66
2022-10-28T07:08:35.166Z,67.54
2022-10-28T07:11:03.292Z,66.85
2022-10-28T07:13:31.175Z,66.08
2022-10-28T07:16:00.717Z,65.61
2022-10-28T07:18:30.358Z,66.41
2022-10-28T07:20:59.761Z,66.05
2022-10-28T07:23:29.090Z,65.82
2022-10-28T07:25:57.714Z,66.04
2022-10-28T07:28:26.905Z,65.97
2022-10-28T07:30:54.877Z,65.99
2022-10-28T07:33:22.783Z,64.95
2022-10-28T07:35:50.685Z,64.22
2022-10-28T07:38:18.725Z,63.96
2022-10-28T07:40:47.965Z,63.33
2022-10-28T07:43:15.869Z,62.89
2022-10-28T07:45:43.735Z,62.06
2022-10-28T07:48:11.659Z,61.85
2022-10-28T07:50:41.468Z,62.05
2022-10-28T07:53:09.486Z,61.37
2022-10-28T07:55:37.471Z,60.88
2022-10-28T07:58:06.732Z,61.06
2022-10-28T08:00:34.660Z,60.72
2022-10-28T08:03:03.729Z,60.68
2022-10-28T08:05:31.705Z,59.94
2022-10-28T08:07:59.583Z,59.64
2022-10-28T08:10:27.917Z,58.75
2022-10-28T08:12:57.317Z,58.82
2022-10-28T08:15:27.455Z,58.96
2022-10-28T08:17:55.842Z,58.90
2022-10-28T08:20:24.593Z,58.36
2022-10-28T08:22:52.904Z,58.11
2022-10-28T08:25:21.044Z,57.48
2022-10-28T08:27:49.146Z,57.26
2022-10-28T08:30:17.122Z,56.69
2022-10-28T08:32:46.397Z,56.30
2022-10-28T08:35:14.553Z,55.99
2022-10-28T08:37:46.095Z,55.54
2022-10-28T08:40:14.786Z,54.72
2022-10-28T08:42:47.481Z,54.45
2022-10-28T08:45:41.471Z,53.84
2022-10-28T08:48:21.044Z,53.83
2022-10-28T08:50:54.165Z,53.34
2022-10-28T08:53:27.712Z,53.25
2022-10-28T08:56:01.009Z,52.65
2022-10-28T08:58:33.979Z,52.85
2022-10-28T09:01:02.496Z,52.54
2022-10-28T09:03:36.800Z,52.17
2022-10-28T09:06:08.735Z,51.37
2022-10-28T09:08:38.768Z,51.50
2022-10-28T09:11:27.632Z,50.95
2022-10-28T09:14:09.350Z,50.85
2022-10-28T09:16:43.852Z,50.89
2022-10-28T09:19:24.385Z,51.73
2022-10-28T09:21:57.242Z,51.38
2022-10-28T09:24:43.534Z,51.28
2022-10-28T09:27:23.461Z,51.03
2022-10-28T09:30:01.946Z,50.03
2022-10-28T09:32:41.071Z,49.40
2022-10-28T09:35:14.887Z,49.22
2022-10-28T09:37:48.872Z,49.23
2022-10-28T09:40:21.151Z,48.29
2022-10-28T09:42:58.557Z,48.25
2022-10-28T09:45:29.610Z,48.40
2022-10-28T09:48:02.015Z,49.12
2022-10-28T09:50:33.725Z,49.75
2022-10-28T09:53:12.866Z,49.36
2022-10-28T09:55:40.933Z,49.11
2022-10-28T09:58:11.065Z,48.35
2022-10-28T10:00:42.507Z,48.06
2022-10-28T10:03:10.446Z,47.37
2022-10-28T10:05:44.523Z,47.44
2022-10-28T10:08:15.950Z,47.39
2022-10-28T10:10:51.165Z,47.68
2022-10-28T10:13:23.683Z,47.28
2022-10-28T10:15:55.955Z,46.93
2022-10-28T10:18:27.028Z,46.39
2022-10-28T10:20:58.663Z,46.58
2022-10-28T10:23:32.130Z,46.26
2022-10-28T10:26:04.625Z,45.18
2022-10-28T10:28:37.850Z,44.63
2022-10-28T10:31:07.189Z,43.55
2022-10-28T10:33:37.437Z,43.35
2022-10-28T10:36:15.856Z,43.46
2022-10-28T10:38:49.315Z,44.28
2022-10-28T10:41:35.413Z,44.18
2022-10-28T10:44:03.355Z,43.71
2022-10-28T10:46:31.325Z,43.50
2022-10-28T10:49:12.664Z,42.19
2022-10-28T10:51:51.832Z,42.24
2022-10-28T10:54:20.235Z,42.40
2022-10-28T10:56:48.299Z,42.34
2022-10-28T10:59:24.194Z,41.78
2022-10-28T11:01:52.677Z,41.23
2022-10-28T11:04:24.599Z,40.85
2022-10-28T11:06:56.258Z,40.40
2022-10-28T11:09:42.456Z,39.81
2022-10-28T11:12:17.926Z,39.99
2022-10-28T11:14:56.938Z,39.24
2022-10-28T11:17:27.883Z,38.42
2022-10-28T11:19:58.798Z,38.40
2022-10-28T11:22:40.859Z,38.32
2022-10-28T11:25:37.220Z,38.31
2022-10-28T11:28:27.664Z,36.88
2022-10-28T11:33:49.037Z,37.30
2022-10-28T11:36:25.689Z,37.11
2022-10-28T11:39:14.332Z,36.30
2022-10-28T11:41:54.296Z,36.24
2022-10-28T11:44:34.301Z,37.11
2022-10-28T11:47:15.753Z,37.24
2022-10-28T11:50:09.047Z,36.76
2022-10-28T11:52:50.824Z,36.95
2022-10-28T11:55:30.763Z,36.52
2022-10-28T12:00:48.443Z,36.22
2022-10-28T12:03:39.256Z,35.98
2022-10-28T12:06:16.342Z,35.89
2022-10-28T12:11:59.407Z,36.08
2022-10-28T12:14:38.415Z,36.00
2022-10-28T12:17:14.619Z,36.03
2022-10-28T12:19:49.173Z,35.65
2022-10-28T12:22:24.813Z,36.51
2022-10-28T12:24:54.499Z,36.43
2022-10-28T12:27:28.145Z,36.19
2022-10-28T12:30:01.209Z,36.99
2022-10-28T12:32:32.838Z,36.64
2022-10-28T12:35:06.530Z,36.21
2022-10-28T12:37:43.394Z,36.52
2022-10-28T12:40:18.421Z,36.56
2022-10-28T12:42:54.900Z,36.82
2022-10-28T12:45:24.196Z,36.55
2022-10-28T12:48:00.474Z,36.58
2022-10-28T12:50:33.501Z,35.93
2022-10-28T12:53:27.391Z,37.30
2022-10-28T12:56:00.013Z,36.88
2022-10-28T12:58:34.493Z,35.97
2022-10-28T13:01:05.380Z,36.39
2022-10-28T13:03:33.821Z,35.76
2022-10-28T13:09:24.721Z,38.77
2022-10-28T13:12:17.157Z,37.22
2022-10-28T13:15:21.461Z,35.61
2022-10-28T13:18:13.032Z,36.10
2022-10-28T13:20:48.417Z,35.88
2022-10-28T13:23:24.484Z,35.93
2022-10-28T13:26:04.242Z,36.19
2022-10-28T13:28:34.946Z,36.26
2022-10-28T13:31:07.074Z,36.07
2022-10-28T13:33:37.545Z,36.23
2022-10-28T13:36:12.989Z,36.73
2022-10-28T13:38:41.714Z,36.12
2022-10-28T13:41:33.241Z,36.14
2022-10-28T13:44:24.103Z,36.68
2022-10-28T13:47:25.307Z,36.35
2022-10-28T13:50:14.966Z,37.00
2022-10-28T13:52:44.452Z,37.57
2022-10-28T13:55:27.356Z,36.80
2022-10-28T13:58:01.791Z,37.04
2022-10-28T14:00:38.957Z,37.13
2022-10-28T14:03:19.795Z,37.77
2022-10-28T14:05:57.495Z,37.76
2022-10-28T14:08:29.677Z,38.29
2022-10-28T14:11:05.146Z,38.19
2022-10-28T14:13:36.089Z,37.91
2022-10-28T14:16:22.447Z,38.22
2022-10-28T14:18:58.168Z,37.69
2022-10-28T14:21:26.291Z,38.24
2022-10-28T14:24:20.379Z,38.46
2022-10-28T14:27:28.060Z,39.10
2022-10-28T14:30:16.586Z,40.07
2022-10-28T14:32:46.293Z,39.10
2022-10-28T14:35:29.980Z,39.21
2022-10-28T14:38:36.585Z,40.27
2022-10-28T14:41:26.689Z,41.16
2022-10-28T14:44:06.895Z,40.84
2022-10-28T14:46:48.339Z,40.71
2022-10-28T14:49:22.322Z,41.05
2022-10-28T14:51:52.394Z,41.42
2022-10-28T14:54:29.113Z,40.93
2022-10-28T14:56:57.775Z,40.89
2022-10-28T14:59:28.491Z,41.00
2022-10-28T15:02:05.249Z,40.98
2022-10-28T15:04:33.291Z,41.25
2022-10-28T15:07:03.601Z,41.12
2022-10-28T15:09:34.873Z,41.24
2022-10-28T15:12:06.728Z,40.98
2022-10-28T15:14:38.284Z,41.10
2022-10-28T15:17:14.234Z,41.67
2022-10-28T15:19:42.821Z,41.37
2022-10-28T15:22:18.271Z,41.48
2022-10-28T15:24:59.819Z,41.70
2022-10-28T15:27:30.647Z,41.91
2022-10-28T15:29:58.617Z,42.08
2022-10-28T15:32:31.748Z,42.81
2022-10-28T15:34:59.792Z,42.59
2022-10-28T15:37:31.269Z,42.90
2022-10-28T15:40:20.752Z,43.72
2022-10-28T15:42:53.981Z,44.08
2022-10-28T15:45:26.167Z,44.55
2022-10-28T15:47:55.664Z,44.58
2022-10-28T15:50:34.310Z,45.11
2022-10-28T15:53:39.704Z,44.73
2022-10-28T15:56:20.634Z,45.07
2022-10-28T15:59:01.229Z,45.02
2022-10-28T16:01:31.772Z,45.35
2022-10-28T16:04:00.499Z,45.81
2022-10-28T16:06:31.641Z,45.91
2022-10-28T16:09:07.931Z,46.58
2022-10-28T16:11:39.469Z,46.74
2022-10-28T16:14:35.732Z,47.10
2022-10-28T16:17:12.762Z,47.06
2022-10-28T16:19:43.894Z,47.26
2022-10-28T16:22:14.256Z,47.94
2022-10-28T16:24:43.816Z,48.37
2022-10-28T16:27:18.726Z,48.39
2022-10-28T16:29:46.684Z,49.02
2022-10-28T16:32:16.300Z,48.75
2022-10-28T16:34:44.203Z,49.02
2022-10-28T16:37:22.375Z,49.46
2022-10-28T16:39:51.679Z,49.83
2022-10-28T16:42:20.521Z,49.86
2022-10-28T16:44:48.615Z,50.41
2022-10-28T16:47:18.412Z,50.70
2022-10-28T16:49:52.590Z,51.06
2022-10-28T16:52:26.193Z,51.52
2022-10-28T16:54:56.365Z,51.93
2022-10-28T16:59:57.641Z,52.21
2022-10-28T17:02:28.935Z,52.35
2022-10-28T17:04:57.292Z,52.73
2022-10-28T17:07:25.177Z,52.94
2022-10-28T17:09:53.759Z,53.25
2022-10-28T17:12:24.894Z,53.46
2022-10-28T17:14:53.218Z,53.53
2022-10-28T17:17:21.549Z,53.98
2022-10-28T17:19:49.432Z,54.51
2022-10-28T17:22:17.359Z,54.54
2022-10-28T17:24:46.100Z,54.45
2022-10-28T17:27:14.018Z,55.11
2022-10-28T17:29:43.336Z,55.22
2022-10-28T17:32:11.306Z,55.15
2022-10-28T17:34:39.396Z,55.23
2022-10-28T17:37:07.881Z,55.31
2022-10-28T17:39:35.978Z,55.46
2022-10-28T17:42:04.178Z,55.62
2022-10-28T17:44:32.103Z,56.61
2022-10-28T17:47:01.373Z,56.22
2022-10-28T17:49:29.958Z,56.07
2022-10-28T17:51:57.895Z,55.87
2022-10-28T17:54:25.781Z,56.20
2022-10-28T17:56:53.677Z,56.77
2022-10-28T17:59:21.566Z,56.82
2022-10-28T18:01:49.699Z,56.44
2022-10-28T18:04:20.207Z,56.61
2022-10-28T18:06:48.235Z,56.59
2022-10-28T18:09:16.128Z,56.90
2022-10-28T18:11:44.082Z,56.92
2022-10-28T18:14:12.088Z,56.98
2022-10-28T18:16:40.041Z,57.12
2022-10-28T18:19:08.607Z,57.25
2022-10-28T18:21:37.878Z,57.36
2022-10-28T18:24:06.158Z,57.37
2022-10-28T18:26:35.716Z,57.99
2022-10-28T18:29:04.872Z,59.74
2022-10-28T18:31:33.575Z,59.58
2022-10-28T18:34:02.150Z,58.61
2022-10-28T18:36:34.484Z,59.28
2022-10-28T18:39:05.464Z,59.62
2022-10-28T18:41:34.589Z,59.19
2022-10-28T18:44:05.059Z,58.62
2022-10-28T18:46:35.013Z,58.62
2022-10-28T18:49:03.140Z,58.91
2022-10-28T18:51:31.147Z,58.39
2022-10-28T18:53:59.184Z,58.98
2022-10-28T18:56:30.200Z,59.38
2022-10-28T18:59:00.119Z,58.91
2022-10-28T19:01:29.558Z,58.67
2022-10-28T19:03:59.164Z,58.90
2022-10-28T19:06:29.863Z,59.01
2022-10-28T19:08:59.034Z,59.79
2022-10-28T19:11:30.261Z,59.02
2022-10-28T19:13:59.024Z,58.26
2022-10-28T19:16:27.477Z,60.38
2022-10-28T19:18:57.163Z,61.46
2022-10-28T19:21:25.762Z,60.05
2022-10-28T19:23:54.171Z,60.15
2022-10-28T19:26:23.673Z,59.50
2022-10-28T19:28:53.679Z,59.82
2022-10-28T19:31:23.717Z,59.62
2022-10-28T19:33:52.905Z,59.84
2022-10-28T19:36:22.917Z,60.02
2022-10-28T19:38:53.704Z,60.32
2022-10-28T19:41:23.975Z,61.08
2022-10-28T19:43:58.138Z,61.29
2022-10-28T19:46:27.660Z,61.60
2022-10-28T19:48:57.402Z,61.98
2022-10-28T19:51:28.214Z,62.14
2022-10-28T19:53:57.980Z,62.02
2022-10-28T19:56:27.033Z,62.09
2022-10-28T19:58:57.849Z,63.08
2022-10-28T20:01:27.881Z,62.79
2022-10-28T20:03:56.692Z,64.29
2022-10-28T20:06:26.356Z,63.96
2022-10-28T20:08:54.733Z,64.29
2022-10-28T20:11:26.330Z,64.40
2022-10-28T20:13:57.590Z,64.28
2022-10-28T20:16:26.221Z,64.91
2022-10-28T20:18:55.192Z,64.82
2022-10-28T20:21:24.919Z,63.95
2022-10-28T20:23:54.723Z,63.57
2022-10-28T20:26:24.315Z,64.20
2022-10-28T20:28:52.328Z,64.38
2022-10-28T20:31:23.403Z,64.49
2022-10-28T20:33:52.727Z,65.40
2022-10-28T20:36:25.540Z,65.31
2022-10-28T20:38:57.250Z,65.02
2022-10-28T20:41:26.593Z,64.65
2022-10-28T20:43:55.252Z,63.48
2022-10-28T20:46:26.035Z,62.66
2022-10-28T20:48:54.906Z,63.01
2022-10-28T20:51:23.547Z,62.75
2022-10-28T20:53:51.701Z,62.60
2022-10-28T20:56:21.157Z,62.26
2022-10-28T20:58:49.039Z,63.24
2022-10-28T21:01:19.781Z,64.14
2022-10-28T21:03:49.703Z,65.49
2022-10-28T21:06:19.358Z,64.45
2022-10-28T21:08:47.249Z,63.24
2022-10-28T21:11:16.560Z,64.37
2022-10-28T21:13:45.570Z,66.08
2022-10-28T21:16:14.296Z,66.64
2022-10-28T21:18:42.467Z,65.78
2022-10-28T21:21:12.361Z,64.96
2022-10-28T21:23:40.456Z,66.35
2022-10-28T21:26:09.674Z,67.50
2022-10-28T21:28:37.818Z,65.86
2022-10-28T21:31:07.402Z,65.24
2022-10-28T21:33:36.677Z,67.13
2022-10-28T21:36:07.340Z,68.93
2022-10-28T21:38:37.104Z,67.28
2022-10-28T21:41:07.103Z,66.69
2022-10-28T21:43:37.557Z,67.06
2022-10-28T21:46:06.289Z,68.86
2022-10-28T21:48:36.242Z,68.44
2022-10-28T21:51:08.649Z,67.35
2022-10-28T21:53:41.335Z,66.90
2022-10-28T21:56:16.314Z,67.80
2022-10-28T21:58:45.762Z,68.35
2022-10-28T22:01:15.637Z,67.37
2022-10-28T22:03:43.758Z,67.67
2022-10-28T22:06:12.243Z,67.39
2022-10-28T22:08:41.520Z,66.76
2022-10-28T22:11:13.092Z,66.91
2022-10-28T22:13:41.530Z,68.32
2022-10-28T22:16:14.609Z,69.68
2022-10-28T22:18:42.916Z,68.24
2022-10-28T22:21:13.419Z,67.93
2022-10-28T22:23:42.940Z,67.42
2022-10-28T22:26:14.450Z,67.76
2022-10-28T22:28:42.678Z,69.94
2022-10-28T22:31:12.799Z,69.07
2022-10-28T22:33:41.285Z,68.14
2022-10-28T22:36:11.519Z,68.94
2022-10-28T22:38:39.867Z,68.44
2022-10-28T22:41:13.118Z,69.10
2022-10-28T22:43:42.340Z,68.65
2022-10-28T22:46:10.841Z,69.77
2022-10-28T22:48:39.019Z,69.89
2022-10-28T22:51:07.054Z,68.65
2022-10-28T22:53:35.066Z,69.16
2022-10-28T22:56:03.084Z,69.88
2022-10-28T22:58:32.898Z,69.93
2022-10-28T23:01:07.869Z,70.01
2022-10-28T23:03:37.151Z,69.38
2022-10-28T23:06:05.713Z,69.59
2022-10-28T23:08:33.855Z,69.64
2022-10-28T23:11:02.051Z,69.54
2022-10-28T23:13:30.049Z,70.14
2022-10-28T23:16:04.221Z,69.86
2022-10-28T23:18:32.125Z,69.55
2022-10-28T23:21:05.243Z,70.25
2022-10-28T23:23:33.165Z,70.37
2022-10-28T23:26:01.081Z,69.65
2022-10-28T23:28:29.078Z,70.09
2022-10-28T23:31:01.868Z,70.57
2022-10-28T23:33:30.946Z,71.15
2022-10-28T23:36:00.088Z,70.38
2022-10-28T23:38:28.325Z,70.77
2022-10-28T23:41:00.652Z,70.81
2022-10-28T23:43:28.880Z,70.91
2022-10-28T23:45:57.138Z,70.45
2022-10-28T23:48:27.361Z,70.26
2022-10-28T23:50:56.089Z,70.31
2022-10-28T23:53:24.698Z,70.81
2022-10-28T23:55:53.244Z,71.40
2022-10-28T23:58:22.235Z,70.31
